sensor_id;sensor_type;location;lat;lon;timestamp;P1;durP1;ratioP1;P2;durP2;ratioP2
20832;SDS011;56075;51.264;7.150;2022-09-09T00:01:26;5.03;;;1.98;;
20832;SDS011;56075;51.264;7.150;2022-09-09T00:04:15;4.70;;;1.80;;
20832;SDS011;56075;51.264;7.150;2022-09-09T00:09:46;5.80;;;1.90;;
20832;SDS011;56075;51.264;7.150;2022-09-09T00:12:45;6.43;;;1.80;;
20832;SDS011;56075;51.264;7.150;2022-09-09T00:15:28;6.43;;;2.45;;
20832;SDS011;56075;51.264;7.150;2022-09-09T00:18:17;7.97;;;2.40;;
20832;SDS011;56075;51.264;7.150;2022-09-09T00:21:07;4.82;;;1.88;;
20832;SDS011;56075;51.264;7.150;2022-09-09T00:23:51;5.93;;;1.80;;
20832;SDS011;56075;51.264;7.150;2022-09-09T00:32:12;5.65;;;1.83;;
20832;SDS011;56075;51.264;7.150;2022-09-09T00:34:55;6.47;;;1.70;;
20832;SDS011;56075;51.264;7.150;2022-09-09T00:37:30;8.02;;;1.88;;
20832;SDS011;56075;51.264;7.150;2022-09-09T00:40:05;6.22;;;2.05;;
20832;SDS011;56075;51.264;7.150;2022-09-09T00:42:49;6.40;;;2.33;;
20832;SDS011;56075;51.264;7.150;2022-09-09T00:48:11;10.13;;;2.50;;
20832;SDS011;56075;51.264;7.150;2022-09-09T00:57:00;7.90;;;2.90;;
20832;SDS011;56075;51.264;7.150;2022-09-09T01:00:14;9.27;;;2.88;;
20832;SDS011;56075;51.264;7.150;2022-09-09T01:03:10;11.10;;;3.13;;
20832;SDS011;56075;51.264;7.150;2022-09-09T01:06:16;10.48;;;3.20;;
20832;SDS011;56075;51.264;7.150;2022-09-09T01:12:23;7.45;;;3.17;;
20832;SDS011;56075;51.264;7.150;2022-09-09T01:15:08;10.45;;;3.38;;
20832;SDS011;56075;51.264;7.150;2022-09-09T01:26:24;9.07;;;3.20;;
20832;SDS011;56075;51.264;7.150;2022-09-09T01:29:06;14.77;;;3.47;;
20832;SDS011;56075;51.264;7.150;2022-09-09T01:31:52;9.02;;;3.53;;
20832;SDS011;56075;51.264;7.150;2022-09-09T01:34:31;7.15;;;3.03;;
20832;SDS011;56075;51.264;7.150;2022-09-09T01:37:07;6.43;;;3.05;;
20832;SDS011;56075;51.264;7.150;2022-09-09T01:39:42;14.50;;;3.10;;
20832;SDS011;56075;51.264;7.150;2022-09-09T01:42:16;9.85;;;3.10;;
20832;SDS011;56075;51.264;7.150;2022-09-09T01:44:49;12.15;;;2.70;;
20832;SDS011;56075;51.264;7.150;2022-09-09T01:47:20;10.55;;;2.90;;
20832;SDS011;56075;51.264;7.150;2022-09-09T01:50:10;7.38;;;2.72;;
20832;SDS011;56075;51.264;7.150;2022-09-09T01:52:45;9.48;;;2.83;;
20832;SDS011;56075;51.264;7.150;2022-09-09T01:55:28;10.27;;;2.40;;
20832;SDS011;56075;51.264;7.150;2022-09-09T02:01:02;7.95;;;2.50;;
20832;SDS011;56075;51.264;7.150;2022-09-09T02:03:47;13.57;;;2.45;;
20832;SDS011;56075;51.264;7.150;2022-09-09T02:06:30;5.82;;;2.45;;
20832;SDS011;56075;51.264;7.150;2022-09-09T02:09:17;6.20;;;2.20;;
20832;SDS011;56075;51.264;7.150;2022-09-09T02:11:58;7.55;;;2.17;;
20832;SDS011;56075;51.264;7.150;2022-09-09T02:15:03;6.60;;;2.25;;
20832;SDS011;56075;51.264;7.150;2022-09-09T02:17:48;5.97;;;2.35;;
20832;SDS011;56075;51.264;7.150;2022-09-09T02:20:23;5.97;;;2.10;;
20832;SDS011;56075;51.264;7.150;2022-09-09T02:23:02;4.75;;;1.88;;
20832;SDS011;56075;51.264;7.150;2022-09-09T02:25:35;7.40;;;2.00;;
20832;SDS011;56075;51.264;7.150;2022-09-09T02:28:19;3.97;;;1.92;;
20832;SDS011;56075;51.264;7.150;2022-09-09T02:30:54;4.45;;;2.00;;
20832;SDS011;56075;51.264;7.150;2022-09-09T02:33:32;6.57;;;2.40;;
20832;SDS011;56075;51.264;7.150;2022-09-09T02:36:07;6.32;;;1.88;;
20832;SDS011;56075;51.264;7.150;2022-09-09T02:38:41;5.93;;;1.85;;
20832;SDS011;56075;51.264;7.150;2022-09-09T02:41:24;5.78;;;1.83;;
20832;SDS011;56075;51.264;7.150;2022-09-09T02:44:00;5.70;;;1.60;;
20832;SDS011;56075;51.264;7.150;2022-09-09T02:46:37;6.40;;;1.92;;
20832;SDS011;56075;51.264;7.150;2022-09-09T02:50:02;6.93;;;1.75;;
20832;SDS011;56075;51.264;7.150;2022-09-09T02:55:23;9.73;;;1.80;;
20832;SDS011;56075;51.264;7.150;2022-09-09T02:58:05;7.43;;;1.70;;
20832;SDS011;56075;51.264;7.150;2022-09-09T03:00:40;6.45;;;1.90;;
20832;SDS011;56075;51.264;7.150;2022-09-09T03:03:11;6.93;;;1.70;;
20832;SDS011;56075;51.264;7.150;2022-09-09T03:05:44;5.75;;;1.60;;
20832;SDS011;56075;51.264;7.150;2022-09-09T03:08:16;8.25;;;1.70;;
20832;SDS011;56075;51.264;7.150;2022-09-09T03:10:48;6.43;;;1.65;;
20832;SDS011;56075;51.264;7.150;2022-09-09T03:13:20;6.20;;;1.80;;
20832;SDS011;56075;51.264;7.150;2022-09-09T03:15:51;5.22;;;1.73;;
20832;SDS011;56075;51.264;7.150;2022-09-09T03:18:24;10.30;;;2.15;;
20832;SDS011;56075;51.264;7.150;2022-09-09T03:20:58;6.80;;;1.80;;
20832;SDS011;56075;51.264;7.150;2022-09-09T03:23:30;7.13;;;1.90;;
20832;SDS011;56075;51.264;7.150;2022-09-09T03:26:06;8.88;;;2.17;;
20832;SDS011;56075;51.264;7.150;2022-09-09T03:28:44;8.10;;;2.03;;
20832;SDS011;56075;51.264;7.150;2022-09-09T03:31:18;7.80;;;2.30;;
20832;SDS011;56075;51.264;7.150;2022-09-09T03:33:50;7.65;;;1.98;;
20832;SDS011;56075;51.264;7.150;2022-09-09T03:36:24;4.65;;;2.17;;
20832;SDS011;56075;51.264;7.150;2022-09-09T03:38:57;6.70;;;2.00;;
20832;SDS011;56075;51.264;7.150;2022-09-09T03:41:31;7.45;;;1.80;;
20832;SDS011;56075;51.264;7.150;2022-09-09T03:44:03;7.95;;;1.73;;
20832;SDS011;56075;51.264;7.150;2022-09-09T03:46:40;5.70;;;2.03;;
20832;SDS011;56075;51.264;7.150;2022-09-09T03:49:11;5.22;;;1.85;;
20832;SDS011;56075;51.264;7.150;2022-09-09T03:51:43;9.75;;;2.10;;
20832;SDS011;56075;51.264;7.150;2022-09-09T03:54:17;5.72;;;2.03;;
20832;SDS011;56075;51.264;7.150;2022-09-09T03:56:48;5.47;;;2.05;;
20832;SDS011;56075;51.264;7.150;2022-09-09T03:59:19;6.60;;;1.95;;
20832;SDS011;56075;51.264;7.150;2022-09-09T04:01:51;5.82;;;1.92;;
20832;SDS011;56075;51.264;7.150;2022-09-09T04:04:24;7.35;;;1.90;;
20832;SDS011;56075;51.264;7.150;2022-09-09T04:06:57;8.68;;;2.20;;
20832;SDS011;56075;51.264;7.150;2022-09-09T04:09:28;8.32;;;2.00;;
20832;SDS011;56075;51.264;7.150;2022-09-09T04:11:59;6.70;;;2.22;;
20832;SDS011;56075;51.264;7.150;2022-09-09T04:14:30;5.00;;;1.77;;
20832;SDS011;56075;51.264;7.150;2022-09-09T04:17:02;7.53;;;2.05;;
20832;SDS011;56075;51.264;7.150;2022-09-09T04:19:36;8.50;;;2.03;;
20832;SDS011;56075;51.264;7.150;2022-09-09T04:22:08;7.45;;;1.80;;
20832;SDS011;56075;51.264;7.150;2022-09-09T04:24:40;7.15;;;1.75;;
20832;SDS011;56075;51.264;7.150;2022-09-09T04:27:11;7.32;;;2.25;;
20832;SDS011;56075;51.264;7.150;2022-09-09T04:29:42;7.10;;;1.80;;
20832;SDS011;56075;51.264;7.150;2022-09-09T04:32:14;6.50;;;1.55;;
20832;SDS011;56075;51.264;7.150;2022-09-09T04:34:45;5.18;;;1.90;;
20832;SDS011;56075;51.264;7.150;2022-09-09T04:37:18;8.05;;;1.80;;
20832;SDS011;56075;51.264;7.150;2022-09-09T04:39:50;11.93;;;1.80;;
20832;SDS011;56075;51.264;7.150;2022-09-09T04:42:21;10.90;;;2.20;;
20832;SDS011;56075;51.264;7.150;2022-09-09T04:44:53;4.68;;;1.48;;
20832;SDS011;56075;51.264;7.150;2022-09-09T04:47:24;9.38;;;1.90;;
20832;SDS011;56075;51.264;7.150;2022-09-09T04:49:57;4.65;;;1.70;;
20832;SDS011;56075;51.264;7.150;2022-09-09T04:52:30;7.85;;;2.05;;
20832;SDS011;56075;51.264;7.150;2022-09-09T04:55:01;5.13;;;1.70;;
20832;SDS011;56075;51.264;7.150;2022-09-09T04:57:34;8.88;;;1.98;;
20832;SDS011;56075;51.264;7.150;2022-09-09T05:00:05;6.13;;;2.00;;
20832;SDS011;56075;51.264;7.150;2022-09-09T05:02:41;7.28;;;1.73;;
20832;SDS011;56075;51.264;7.150;2022-09-09T05:05:13;6.18;;;1.70;;
20832;SDS011;56075;51.264;7.150;2022-09-09T05:07:45;8.00;;;1.90;;
20832;SDS011;56075;51.264;7.150;2022-09-09T05:10:18;7.05;;;1.92;;
20832;SDS011;56075;51.264;7.150;2022-09-09T05:12:52;5.32;;;2.00;;
20832;SDS011;56075;51.264;7.150;2022-09-09T05:15:24;9.40;;;1.92;;
20832;SDS011;56075;51.264;7.150;2022-09-09T05:17:59;4.10;;;1.60;;
20832;SDS011;56075;51.264;7.150;2022-09-09T05:20:35;6.45;;;1.80;;
20832;SDS011;56075;51.264;7.150;2022-09-09T05:23:07;5.75;;;1.85;;
20832;SDS011;56075;51.264;7.150;2022-09-09T05:25:40;12.13;;;2.50;;
20832;SDS011;56075;51.264;7.150;2022-09-09T05:28:12;7.78;;;1.60;;
20832;SDS011;56075;51.264;7.150;2022-09-09T05:30:45;9.02;;;1.80;;
20832;SDS011;56075;51.264;7.150;2022-09-09T05:33:16;4.53;;;1.98;;
20832;SDS011;56075;51.264;7.150;2022-09-09T05:35:47;6.78;;;1.77;;
20832;SDS011;56075;51.264;7.150;2022-09-09T05:38:25;6.38;;;1.50;;
20832;SDS011;56075;51.264;7.150;2022-09-09T05:40:56;8.80;;;1.67;;
20832;SDS011;56075;51.264;7.150;2022-09-09T05:43:28;6.25;;;1.90;;
20832;SDS011;56075;51.264;7.150;2022-09-09T05:46:01;6.60;;;1.75;;
20832;SDS011;56075;51.264;7.150;2022-09-09T05:48:41;7.45;;;1.60;;
20832;SDS011;56075;51.264;7.150;2022-09-09T05:51:14;9.05;;;1.80;;
20832;SDS011;56075;51.264;7.150;2022-09-09T05:53:48;9.98;;;1.55;;
20832;SDS011;56075;51.264;7.150;2022-09-09T05:56:20;6.57;;;1.60;;
20832;SDS011;56075;51.264;7.150;2022-09-09T05:58:53;9.45;;;1.75;;
20832;SDS011;56075;51.264;7.150;2022-09-09T06:01:26;8.50;;;1.77;;
20832;SDS011;56075;51.264;7.150;2022-09-09T06:03:59;6.45;;;1.50;;
20832;SDS011;56075;51.264;7.150;2022-09-09T06:06:35;4.70;;;1.70;;
20832;SDS011;56075;51.264;7.150;2022-09-09T06:09:09;5.70;;;1.77;;
20832;SDS011;56075;51.264;7.150;2022-09-09T06:11:42;10.80;;;1.80;;
20832;SDS011;56075;51.264;7.150;2022-09-09T06:14:15;8.48;;;1.80;;
20832;SDS011;56075;51.264;7.150;2022-09-09T06:16:50;5.45;;;1.70;;
20832;SDS011;56075;51.264;7.150;2022-09-09T06:19:25;4.78;;;1.90;;
20832;SDS011;56075;51.264;7.150;2022-09-09T06:21:59;2.85;;;1.30;;
20832;SDS011;56075;51.264;7.150;2022-09-09T06:24:35;6.75;;;1.38;;
20832;SDS011;56075;51.264;7.150;2022-09-09T06:27:07;9.05;;;1.48;;
20832;SDS011;56075;51.264;7.150;2022-09-09T06:29:40;7.13;;;1.58;;
20832;SDS011;56075;51.264;7.150;2022-09-09T06:32:12;6.43;;;1.40;;
20832;SDS011;56075;51.264;7.150;2022-09-09T06:34:43;6.18;;;1.42;;
20832;SDS011;56075;51.264;7.150;2022-09-09T06:37:16;6.75;;;1.40;;
20832;SDS011;56075;51.264;7.150;2022-09-09T06:39:51;5.90;;;1.60;;
20832;SDS011;56075;51.264;7.150;2022-09-09T06:42:23;6.20;;;1.40;;
20832;SDS011;56075;51.264;7.150;2022-09-09T06:44:54;5.13;;;1.27;;
20832;SDS011;56075;51.264;7.150;2022-09-09T06:47:32;6.32;;;1.30;;
20832;SDS011;56075;51.264;7.150;2022-09-09T06:50:04;6.10;;;1.65;;
20832;SDS011;56075;51.264;7.150;2022-09-09T06:52:39;7.28;;;1.42;;
20832;SDS011;56075;51.264;7.150;2022-09-09T06:55:12;7.40;;;1.80;;
20832;SDS011;56075;51.264;7.150;2022-09-09T06:57:46;6.82;;;1.60;;
20832;SDS011;56075;51.264;7.150;2022-09-09T07:00:23;6.25;;;1.42;;
20832;SDS011;56075;51.264;7.150;2022-09-09T07:02:55;8.73;;;1.48;;
20832;SDS011;56075;51.264;7.150;2022-09-09T07:05:27;4.75;;;1.15;;
20832;SDS011;56075;51.264;7.150;2022-09-09T07:07:58;7.82;;;1.23;;
20832;SDS011;56075;51.264;7.150;2022-09-09T07:10:30;9.13;;;1.77;;
20832;SDS011;56075;51.264;7.150;2022-09-09T07:13:02;5.13;;;1.40;;
20832;SDS011;56075;51.264;7.150;2022-09-09T07:15:33;3.38;;;1.30;;
20832;SDS011;56075;51.264;7.150;2022-09-09T07:18:04;4.85;;;1.13;;
20832;SDS011;56075;51.264;7.150;2022-09-09T07:20:35;4.35;;;1.10;;
20832;SDS011;56075;51.264;7.150;2022-09-09T07:23:07;4.80;;;1.33;;
20832;SDS011;56075;51.264;7.150;2022-09-09T07:25:43;8.27;;;1.20;;
20832;SDS011;56075;51.264;7.150;2022-09-09T07:28:16;8.05;;;1.10;;
20832;SDS011;56075;51.264;7.150;2022-09-09T07:30:55;5.05;;;1.40;;
20832;SDS011;56075;51.264;7.150;2022-09-09T07:33:34;5.97;;;1.38;;
20832;SDS011;56075;51.264;7.150;2022-09-09T07:36:08;8.35;;;1.30;;
20832;SDS011;56075;51.264;7.150;2022-09-09T07:38:47;4.93;;;1.08;;
20832;SDS011;56075;51.264;7.150;2022-09-09T07:43:57;6.28;;;1.50;;
20832;SDS011;56075;51.264;7.150;2022-09-09T07:46:29;7.03;;;1.45;;
20832;SDS011;56075;51.264;7.150;2022-09-09T07:49:01;8.30;;;1.30;;
20832;SDS011;56075;51.264;7.150;2022-09-09T07:51:37;4.30;;;1.17;;
20832;SDS011;56075;51.264;7.150;2022-09-09T07:54:10;6.95;;;1.52;;
20832;SDS011;56075;51.264;7.150;2022-09-09T07:56:46;6.43;;;1.23;;
20832;SDS011;56075;51.264;7.150;2022-09-09T07:59:18;6.15;;;1.40;;
20832;SDS011;56075;51.264;7.150;2022-09-09T08:01:52;5.25;;;1.23;;
20832;SDS011;56075;51.264;7.150;2022-09-09T08:04:27;4.57;;;1.20;;
20832;SDS011;56075;51.264;7.150;2022-09-09T08:07:00;6.72;;;1.30;;
20832;SDS011;56075;51.264;7.150;2022-09-09T08:09:34;7.50;;;1.40;;
20832;SDS011;56075;51.264;7.150;2022-09-09T08:12:21;5.00;;;1.23;;
20832;SDS011;56075;51.264;7.150;2022-09-09T08:14:53;6.20;;;1.20;;
20832;SDS011;56075;51.264;7.150;2022-09-09T08:17:26;8.43;;;1.50;;
20832;SDS011;56075;51.264;7.150;2022-09-09T08:19:57;8.70;;;1.20;;
20832;SDS011;56075;51.264;7.150;2022-09-09T08:22:33;4.55;;;1.17;;
20832;SDS011;56075;51.264;7.150;2022-09-09T08:25:05;4.68;;;1.13;;
20832;SDS011;56075;51.264;7.150;2022-09-09T08:27:37;7.00;;;1.23;;
20832;SDS011;56075;51.264;7.150;2022-09-09T08:30:09;6.20;;;1.10;;
20832;SDS011;56075;51.264;7.150;2022-09-09T08:32:41;5.65;;;0.90;;
20832;SDS011;56075;51.264;7.150;2022-09-09T08:35:12;4.55;;;0.90;;
20832;SDS011;56075;51.264;7.150;2022-09-09T08:37:43;5.30;;;1.13;;
20832;SDS011;56075;51.264;7.150;2022-09-09T08:40:18;4.53;;;0.93;;
20832;SDS011;56075;51.264;7.150;2022-09-09T08:42:56;3.17;;;0.80;;
20832;SDS011;56075;51.264;7.150;2022-09-09T08:45:44;4.53;;;1.15;;
20832;SDS011;56075;51.264;7.150;2022-09-09T08:51:29;4.22;;;1.17;;
20832;SDS011;56075;51.264;7.150;2022-09-09T08:54:04;6.47;;;1.20;;
20832;SDS011;56075;51.264;7.150;2022-09-09T08:56:37;7.07;;;1.23;;
20832;SDS011;56075;51.264;7.150;2022-09-09T08:59:08;7.03;;;1.15;;
20832;SDS011;56075;51.264;7.150;2022-09-09T09:01:55;5.13;;;1.00;;
20832;SDS011;56075;51.264;7.150;2022-09-09T09:04:56;9.30;;;1.33;;
20832;SDS011;56075;51.264;7.150;2022-09-09T09:10:38;4.20;;;1.17;;
20832;SDS011;56075;51.264;7.150;2022-09-09T09:16:31;3.05;;;0.88;;
20832;SDS011;56075;51.264;7.150;2022-09-09T09:19:08;2.85;;;0.93;;
20832;SDS011;56075;51.264;7.150;2022-09-09T09:21:51;11.05;;;1.58;;
20832;SDS011;56075;51.264;7.150;2022-09-09T09:24:34;10.15;;;1.48;;
20832;SDS011;56075;51.264;7.150;2022-09-09T09:27:33;4.95;;;1.45;;
20832;SDS011;56075;51.264;7.150;2022-09-09T09:35:36;5.40;;;1.50;;
20832;SDS011;56075;51.264;7.150;2022-09-09T09:38:21;6.72;;;1.30;;
20832;SDS011;56075;51.264;7.150;2022-09-09T09:41:01;4.60;;;1.27;;
20832;SDS011;56075;51.264;7.150;2022-09-09T09:43:35;5.47;;;1.30;;
20832;SDS011;56075;51.264;7.150;2022-09-09T09:46:22;6.05;;;1.17;;
20832;SDS011;56075;51.264;7.150;2022-09-09T09:49:03;7.57;;;0.98;;
20832;SDS011;56075;51.264;7.150;2022-09-09T09:51:37;5.32;;;1.17;;
20832;SDS011;56075;51.264;7.150;2022-09-09T09:57:06;5.82;;;1.25;;
20832;SDS011;56075;51.264;7.150;2022-09-09T09:59:47;7.25;;;1.15;;
20832;SDS011;56075;51.264;7.150;2022-09-09T10:02:25;5.38;;;1.05;;
20832;SDS011;56075;51.264;7.150;2022-09-09T10:05:14;5.65;;;0.98;;
20832;SDS011;56075;51.264;7.150;2022-09-09T10:08:04;7.15;;;1.08;;
20832;SDS011;56075;51.264;7.150;2022-09-09T10:14:00;3.25;;;0.77;;
20832;SDS011;56075;51.264;7.150;2022-09-09T10:17:07;4.20;;;0.88;;
20832;SDS011;56075;51.264;7.150;2022-09-09T10:20:32;1.95;;;0.70;;
20832;SDS011;56075;51.264;7.150;2022-09-09T10:22:44;2.20;;;0.80;;
20832;SDS011;56075;51.264;7.150;2022-09-09T10:25:35;3.42;;;0.80;;
20832;SDS011;56075;51.264;7.150;2022-09-09T10:28:26;5.28;;;0.90;;
20832;SDS011;56075;51.264;7.150;2022-09-09T10:31:10;3.30;;;0.90;;
20832;SDS011;56075;51.264;7.150;2022-09-09T10:34:00;3.88;;;0.90;;
20832;SDS011;56075;51.264;7.150;2022-09-09T10:36:46;2.63;;;0.82;;
20832;SDS011;56075;51.264;7.150;2022-09-09T10:39:27;4.38;;;0.75;;
20832;SDS011;56075;51.264;7.150;2022-09-09T10:42:12;5.47;;;1.20;;
20832;SDS011;56075;51.264;7.150;2022-09-09T10:44:49;4.00;;;1.00;;
20832;SDS011;56075;51.264;7.150;2022-09-09T10:50:14;3.92;;;0.93;;
20832;SDS011;56075;51.264;7.150;2022-09-09T10:55:51;3.00;;;0.73;;
20832;SDS011;56075;51.264;7.150;2022-09-09T10:58:36;4.57;;;0.82;;
20832;SDS011;56075;51.264;7.150;2022-09-09T11:01:15;3.08;;;0.90;;
20832;SDS011;56075;51.264;7.150;2022-09-09T11:03:56;3.58;;;0.70;;
20832;SDS011;56075;51.264;7.150;2022-09-09T11:06:34;2.85;;;0.73;;
20832;SDS011;56075;51.264;7.150;2022-09-09T11:09:17;4.05;;;0.85;;
20832;SDS011;56075;51.264;7.150;2022-09-09T11:11:56;2.92;;;0.70;;
20832;SDS011;56075;51.264;7.150;2022-09-09T11:14:30;4.53;;;1.00;;
20832;SDS011;56075;51.264;7.150;2022-09-09T11:17:12;4.45;;;0.80;;
20832;SDS011;56075;51.264;7.150;2022-09-09T11:19:54;6.03;;;1.15;;
20832;SDS011;56075;51.264;7.150;2022-09-09T11:22:30;2.60;;;0.70;;
20832;SDS011;56075;51.264;7.150;2022-09-09T11:28:03;2.50;;;0.98;;
20832;SDS011;56075;51.264;7.150;2022-09-09T11:38:45;2.17;;;0.88;;
20832;SDS011;56075;51.264;7.150;2022-09-09T11:41:32;3.28;;;0.80;;
20832;SDS011;56075;51.264;7.150;2022-09-09T11:44:17;2.35;;;0.63;;
20832;SDS011;56075;51.264;7.150;2022-09-09T11:46:59;1.90;;;0.68;;
20832;SDS011;56075;51.264;7.150;2022-09-09T11:49:40;1.52;;;0.70;;
20832;SDS011;56075;51.264;7.150;2022-09-09T11:52:34;1.20;;;0.70;;
20832;SDS011;56075;51.264;7.150;2022-09-09T11:55:10;3.05;;;0.80;;
20832;SDS011;56075;51.264;7.150;2022-09-09T11:58:03;4.38;;;0.93;;
20832;SDS011;56075;51.264;7.150;2022-09-09T12:06:20;3.40;;;0.73;;
20832;SDS011;56075;51.264;7.150;2022-09-09T12:09:06;1.75;;;0.70;;
20832;SDS011;56075;51.264;7.150;2022-09-09T12:15:23;3.95;;;1.40;;
20832;SDS011;56075;51.264;7.150;2022-09-09T12:17:59;6.82;;;1.65;;
20832;SDS011;56075;51.264;7.150;2022-09-09T12:20:36;6.60;;;1.90;;
20832;SDS011;56075;51.264;7.150;2022-09-09T12:26:06;3.58;;;1.25;;
20832;SDS011;56075;51.264;7.150;2022-09-09T12:34:34;2.53;;;1.10;;
20832;SDS011;56075;51.264;7.150;2022-09-09T12:37:21;4.70;;;1.10;;
20832;SDS011;56075;51.264;7.150;2022-09-09T12:40:15;4.13;;;1.50;;
20832;SDS011;56075;51.264;7.150;2022-09-09T12:42:51;3.75;;;0.88;;
20832;SDS011;56075;51.264;7.150;2022-09-09T12:45:24;3.08;;;1.02;;
20832;SDS011;56075;51.264;7.150;2022-09-09T12:47:58;5.80;;;1.10;;
20832;SDS011;56075;51.264;7.150;2022-09-09T12:50:32;1.70;;;0.90;;
20832;SDS011;56075;51.264;7.150;2022-09-09T12:53:29;3.65;;;0.80;;
20832;SDS011;56075;51.264;7.150;2022-09-09T12:56:04;3.75;;;0.77;;
20832;SDS011;56075;51.264;7.150;2022-09-09T12:58:38;7.28;;;0.90;;
20832;SDS011;56075;51.264;7.150;2022-09-09T13:01:27;5.75;;;0.95;;
20832;SDS011;56075;51.264;7.150;2022-09-09T13:04:18;4.55;;;1.02;;
20832;SDS011;56075;51.264;7.150;2022-09-09T13:06:52;4.75;;;1.27;;
20832;SDS011;56075;51.264;7.150;2022-09-09T13:09:24;3.75;;;1.08;;
20832;SDS011;56075;51.264;7.150;2022-09-09T13:11:55;3.75;;;1.10;;
20832;SDS011;56075;51.264;7.150;2022-09-09T13:14:29;4.47;;;1.45;;
20832;SDS011;56075;51.264;7.150;2022-09-09T13:17:05;3.90;;;1.10;;
20832;SDS011;56075;51.264;7.150;2022-09-09T13:19:37;3.80;;;0.93;;
20832;SDS011;56075;51.264;7.150;2022-09-09T13:22:29;3.45;;;0.95;;
20832;SDS011;56075;51.264;7.150;2022-09-09T13:25:06;7.88;;;1.88;;
20832;SDS011;56075;51.264;7.150;2022-09-09T13:27:53;5.13;;;1.17;;
20832;SDS011;56075;51.264;7.150;2022-09-09T13:30:25;10.77;;;1.40;;
20832;SDS011;56075;51.264;7.150;2022-09-09T13:35:46;8.80;;;1.70;;
20832;SDS011;56075;51.264;7.150;2022-09-09T13:38:23;10.23;;;1.50;;
20832;SDS011;56075;51.264;7.150;2022-09-09T13:41:05;4.82;;;1.63;;
20832;SDS011;56075;51.264;7.150;2022-09-09T13:43:45;7.20;;;1.73;;
20832;SDS011;56075;51.264;7.150;2022-09-09T13:54:18;5.60;;;2.35;;
20832;SDS011;56075;51.264;7.150;2022-09-09T13:56:50;5.45;;;2.30;;
20832;SDS011;56075;51.264;7.150;2022-09-09T13:59:21;6.85;;;2.47;;
20832;SDS011;56075;51.264;7.150;2022-09-09T14:01:54;5.82;;;2.13;;
20832;SDS011;56075;51.264;7.150;2022-09-09T14:04:25;18.25;;;2.50;;
20832;SDS011;56075;51.264;7.150;2022-09-09T14:06:56;43.20;;;3.10;;
20832;SDS011;56075;51.264;7.150;2022-09-09T14:09:28;21.90;;;2.15;;
20832;SDS011;56075;51.264;7.150;2022-09-09T14:11:59;10.65;;;2.17;;
20832;SDS011;56075;51.264;7.150;2022-09-09T14:14:31;6.00;;;1.50;;
20832;SDS011;56075;51.264;7.150;2022-09-09T14:17:03;6.82;;;3.45;;
20832;SDS011;56075;51.264;7.150;2022-09-09T14:19:34;6.43;;;1.30;;
20832;SDS011;56075;51.264;7.150;2022-09-09T14:22:05;5.60;;;1.48;;
20832;SDS011;56075;51.264;7.150;2022-09-09T14:24:37;8.48;;;1.70;;
20832;SDS011;56075;51.264;7.150;2022-09-09T14:27:08;8.18;;;1.88;;
20832;SDS011;56075;51.264;7.150;2022-09-09T14:29:39;4.70;;;1.60;;
20832;SDS011;56075;51.264;7.150;2022-09-09T14:32:10;4.13;;;1.38;;
20832;SDS011;56075;51.264;7.150;2022-09-09T14:34:42;5.25;;;1.40;;
20832;SDS011;56075;51.264;7.150;2022-09-09T14:37:13;5.97;;;1.70;;
20832;SDS011;56075;51.264;7.150;2022-09-09T14:39:44;3.25;;;1.20;;
20832;SDS011;56075;51.264;7.150;2022-09-09T14:42:17;2.90;;;1.15;;
20832;SDS011;56075;51.264;7.150;2022-09-09T14:44:49;3.30;;;1.20;;
20832;SDS011;56075;51.264;7.150;2022-09-09T14:47:20;4.10;;;1.27;;
20832;SDS011;56075;51.264;7.150;2022-09-09T14:49:51;4.53;;;1.50;;
20832;SDS011;56075;51.264;7.150;2022-09-09T14:52:23;4.65;;;1.27;;
20832;SDS011;56075;51.264;7.150;2022-09-09T14:54:54;4.45;;;1.35;;
20832;SDS011;56075;51.264;7.150;2022-09-09T14:57:25;4.82;;;0.98;;
20832;SDS011;56075;51.264;7.150;2022-09-09T14:59:56;5.80;;;1.30;;
20832;SDS011;56075;51.264;7.150;2022-09-09T15:02:27;3.38;;;1.20;;
20832;SDS011;56075;51.264;7.150;2022-09-09T15:05:00;7.15;;;1.40;;
20832;SDS011;56075;51.264;7.150;2022-09-09T15:07:32;4.35;;;1.30;;
20832;SDS011;56075;51.264;7.150;2022-09-09T15:10:04;4.10;;;1.85;;
20832;SDS011;56075;51.264;7.150;2022-09-09T15:12:37;7.65;;;1.77;;
20832;SDS011;56075;51.264;7.150;2022-09-09T15:15:09;4.30;;;1.38;;
20832;SDS011;56075;51.264;7.150;2022-09-09T15:17:40;5.53;;;1.75;;
20832;SDS011;56075;51.264;7.150;2022-09-09T15:20:11;8.32;;;2.20;;
20832;SDS011;56075;51.264;7.150;2022-09-09T15:22:42;4.25;;;1.00;;
20832;SDS011;56075;51.264;7.150;2022-09-09T15:25:14;3.78;;;1.10;;
20832;SDS011;56075;51.264;7.150;2022-09-09T15:27:45;1.98;;;0.88;;
20832;SDS011;56075;51.264;7.150;2022-09-09T15:30:16;3.60;;;0.60;;
20832;SDS011;56075;51.264;7.150;2022-09-09T15:32:47;2.88;;;0.60;;
20832;SDS011;56075;51.264;7.150;2022-09-09T15:35:18;2.60;;;0.93;;
20832;SDS011;56075;51.264;7.150;2022-09-09T15:37:50;3.53;;;0.65;;
20832;SDS011;56075;51.264;7.150;2022-09-09T15:40:21;3.78;;;0.70;;
20832;SDS011;56075;51.264;7.150;2022-09-09T15:42:52;2.30;;;0.70;;
20832;SDS011;56075;51.264;7.150;2022-09-09T15:45:23;2.63;;;0.68;;
20832;SDS011;56075;51.264;7.150;2022-09-09T15:47:54;2.13;;;0.70;;
20832;SDS011;56075;51.264;7.150;2022-09-09T15:50:26;2.10;;;1.10;;
20832;SDS011;56075;51.264;7.150;2022-09-09T15:52:57;2.92;;;1.15;;
20832;SDS011;56075;51.264;7.150;2022-09-09T15:55:29;3.42;;;1.38;;
20832;SDS011;56075;51.264;7.150;2022-09-09T15:58:00;3.08;;;1.10;;
20832;SDS011;56075;51.264;7.150;2022-09-09T16:00:31;5.18;;;1.20;;
20832;SDS011;56075;51.264;7.150;2022-09-09T16:03:04;2.40;;;1.13;;
20832;SDS011;56075;51.264;7.150;2022-09-09T16:05:35;6.38;;;1.40;;
20832;SDS011;56075;51.264;7.150;2022-09-09T16:08:07;4.75;;;1.30;;
20832;SDS011;56075;51.264;7.150;2022-09-09T16:10:38;4.20;;;1.50;;
20832;SDS011;56075;51.264;7.150;2022-09-09T16:13:09;3.92;;;1.27;;
20832;SDS011;56075;51.264;7.150;2022-09-09T16:15:41;2.92;;;1.20;;
20832;SDS011;56075;51.264;7.150;2022-09-09T16:18:13;2.65;;;1.50;;
20832;SDS011;56075;51.264;7.150;2022-09-09T16:20:52;7.53;;;1.45;;
20832;SDS011;56075;51.264;7.150;2022-09-09T16:23:25;5.95;;;1.50;;
20832;SDS011;56075;51.264;7.150;2022-09-09T16:25:56;7.93;;;1.40;;
20832;SDS011;56075;51.264;7.150;2022-09-09T16:28:27;4.55;;;1.80;;
20832;SDS011;56075;51.264;7.150;2022-09-09T16:30:59;6.88;;;1.73;;
20832;SDS011;56075;51.264;7.150;2022-09-09T16:33:35;6.15;;;2.15;;
20832;SDS011;56075;51.264;7.150;2022-09-09T16:36:07;6.35;;;2.65;;
20832;SDS011;56075;51.264;7.150;2022-09-09T16:38:41;6.72;;;2.40;;
20832;SDS011;56075;51.264;7.150;2022-09-09T16:41:13;6.80;;;2.80;;
20832;SDS011;56075;51.264;7.150;2022-09-09T16:43:45;5.75;;;2.42;;
20832;SDS011;56075;51.264;7.150;2022-09-09T16:46:16;7.53;;;2.55;;
20832;SDS011;56075;51.264;7.150;2022-09-09T16:48:49;10.35;;;2.40;;
20832;SDS011;56075;51.264;7.150;2022-09-09T16:51:24;4.68;;;2.55;;
20832;SDS011;56075;51.264;7.150;2022-09-09T16:54:00;9.30;;;2.70;;
20832;SDS011;56075;51.264;7.150;2022-09-09T16:56:34;9.77;;;2.70;;
20832;SDS011;56075;51.264;7.150;2022-09-09T16:59:12;7.40;;;2.40;;
20832;SDS011;56075;51.264;7.150;2022-09-09T17:01:46;5.38;;;2.30;;
20832;SDS011;56075;51.264;7.150;2022-09-09T17:04:20;11.30;;;3.05;;
20832;SDS011;56075;51.264;7.150;2022-09-09T17:06:55;5.82;;;2.28;;
20832;SDS011;56075;51.264;7.150;2022-09-09T17:09:27;7.57;;;2.20;;
20832;SDS011;56075;51.264;7.150;2022-09-09T17:11:59;7.00;;;2.13;;
20832;SDS011;56075;51.264;7.150;2022-09-09T17:14:32;6.30;;;2.67;;
20832;SDS011;56075;51.264;7.150;2022-09-09T17:17:03;7.10;;;2.67;;
20832;SDS011;56075;51.264;7.150;2022-09-09T17:19:35;6.80;;;2.58;;
20832;SDS011;56075;51.264;7.150;2022-09-09T17:22:06;7.93;;;3.00;;
20832;SDS011;56075;51.264;7.150;2022-09-09T17:24:37;6.95;;;2.90;;
20832;SDS011;56075;51.264;7.150;2022-09-09T17:27:09;8.52;;;2.60;;